Terminal Aerodrome Forecast
Issued by NWS Blacksburg, VA

Home | Current Version | Previous Version | Text Only | Print | Product List | Glossary On
Versions: 1 2 3 4 5 6 7 8 9 10 11 12 13 14 15
000
FTUS41 KRNK 141135
TAFROA
TAF
KROA 141135Z 1412/1512 28018G35KT P6SM SCT050
     FM141800 30012G22KT P6SM SCT200
     FM142100 31010KT P6SM SCT200
     FM150400 00000KT P6SM BKN200
     FM151000 00000KT P6SM BKN045=

USA.gov is the U.S. government's official web portal to all federal, state and local government web resources and services.